createdAt,value
2023-04-08T00:00:25.647Z,29.93
2023-04-08T00:03:29.921Z,28.90
2023-04-08T00:06:34.435Z,28.37
2023-04-08T00:09:39.517Z,28.68
2023-04-08T00:12:44.204Z,28.35
2023-04-08T00:15:48.559Z,28.29
2023-04-08T00:18:53.054Z,27.27
2023-04-08T00:21:57.736Z,26.61
2023-04-08T00:25:02.783Z,25.54
2023-04-08T00:28:07.228Z,26.47
2023-04-08T00:31:12.475Z,26.71
2023-04-08T00:34:17.302Z,26.86
2023-04-08T00:37:22.015Z,26.15
2023-04-08T00:40:25.985Z,26.54
2023-04-08T00:43:30.667Z,26.79
2023-04-08T00:46:39.858Z,26.59
2023-04-08T00:49:45.378Z,26.74
2023-04-08T00:53:00.781Z,26.69
2023-04-08T00:56:05.691Z,25.61
2023-04-08T00:59:10.375Z,26.61
2023-04-08T01:02:33.344Z,26.41
2023-04-08T01:05:51.317Z,25.73
2023-04-08T01:08:56.072Z,25.65
2023-04-08T01:12:05.311Z,26.05
2023-04-08T01:15:12.481Z,24.97
2023-04-08T01:18:18.202Z,24.63
2023-04-08T01:21:23.091Z,23.91
2023-04-08T01:24:35.174Z,25.37
2023-04-08T01:27:39.958Z,26.02
2023-04-08T01:30:46.466Z,26.17
2023-04-08T01:33:52.665Z,26.43
2023-04-08T01:37:00.734Z,25.89
2023-04-08T01:40:06.196Z,26.15
2023-04-08T01:43:12.838Z,24.86
2023-04-08T01:46:17.165Z,24.26
2023-04-08T01:49:23.668Z,26.53
2023-04-08T01:52:29.908Z,25.91
2023-04-08T01:55:34.796Z,25.24
2023-04-08T01:58:43.328Z,24.58
2023-04-08T02:01:48.666Z,25.22
2023-04-08T02:04:52.798Z,24.81
2023-04-08T02:07:57.039Z,24.99
2023-04-08T02:11:01.696Z,25.53
2023-04-08T02:14:06.729Z,26.12
2023-04-08T02:17:15.212Z,25.71
2023-04-08T02:20:20.297Z,26.79
2023-04-08T02:23:26.592Z,25.71
2023-04-08T02:26:39.184Z,26.40
2023-04-08T02:29:44.236Z,26.14
2023-04-08T02:32:49.105Z,26.74
2023-04-08T02:35:56.177Z,26.54
2023-04-08T02:39:01.060Z,26.96
2023-04-08T02:42:06.958Z,26.03
2023-04-08T02:45:11.431Z,26.51
2023-04-08T02:48:15.878Z,26.90
2023-04-08T02:51:19.921Z,26.73
2023-04-08T02:54:23.833Z,26.47
2023-04-08T02:57:28.317Z,26.07
2023-04-08T03:00:33.083Z,26.47
2023-04-08T03:03:37.401Z,27.85
2023-04-08T03:06:41.446Z,27.28
2023-04-08T03:09:45.731Z,26.90
2023-04-08T03:12:49.871Z,24.68
2023-04-08T03:15:54.443Z,26.87
2023-04-08T03:18:58.951Z,26.41
2023-04-08T03:22:03.443Z,27.25
2023-04-08T03:25:07.978Z,26.68
2023-04-08T03:28:14.300Z,25.97
2023-04-08T03:31:18.354Z,26.80
2023-04-08T03:34:22.992Z,27.53
2023-04-08T03:37:27.803Z,27.91
2023-04-08T03:40:34.597Z,26.81
2023-04-08T03:43:38.950Z,26.62
2023-04-08T03:46:43.131Z,26.91
2023-04-08T03:49:47.748Z,25.21
2023-04-08T03:52:52.305Z,26.17
2023-04-08T03:55:58.535Z,26.50
2023-04-08T03:59:02.727Z,25.94
2023-04-08T04:02:07.269Z,25.58
2023-04-08T04:05:11.738Z,27.31
2023-04-08T04:08:16.682Z,26.83
2023-04-08T04:11:22.391Z,26.71
2023-04-08T04:14:26.697Z,26.03
2023-04-08T04:17:31.441Z,27.10
2023-04-08T04:20:36.455Z,25.93
2023-04-08T04:23:41.022Z,26.69
2023-04-08T04:26:45.043Z,26.58
2023-04-08T04:29:49.546Z,26.17
2023-04-08T04:32:53.447Z,25.03
2023-04-08T04:35:58.052Z,26.06
2023-04-08T04:39:02.854Z,26.68
2023-04-08T04:42:07.521Z,26.10
2023-04-08T04:45:12.412Z,26.57
2023-04-08T04:48:16.434Z,26.17
2023-04-08T04:51:22.029Z,26.48
2023-04-08T04:54:26.856Z,27.34
2023-04-08T04:57:31.476Z,26.25
2023-04-08T05:00:37.220Z,26.50
2023-04-08T05:03:42.151Z,27.02
2023-04-08T05:06:46.964Z,26.51
2023-04-08T05:09:51.533Z,26.60
2023-04-08T05:12:55.588Z,26.78
2023-04-08T05:15:59.877Z,26.51
2023-04-08T05:19:03.887Z,26.24
2023-04-08T05:22:08.318Z,25.20
2023-04-08T05:25:12.937Z,26.41
2023-04-08T05:28:17.224Z,27.17
2023-04-08T05:31:22.394Z,27.29
2023-04-08T05:34:26.628Z,27.29
2023-04-08T05:37:31.479Z,26.79
2023-04-08T05:40:36.211Z,25.97
2023-04-08T05:43:40.923Z,26.59
2023-04-08T05:46:48.412Z,27.28
2023-04-08T05:49:52.446Z,26.46
2023-04-08T05:52:56.747Z,26.48
2023-04-08T05:56:01.181Z,26.90
2023-04-08T05:59:05.890Z,27.38
2023-04-08T06:02:12.449Z,27.38
2023-04-08T06:05:17.287Z,27.55
2023-04-08T06:08:22.012Z,28.21
2023-04-08T06:11:26.736Z,27.51
2023-04-08T06:14:31.340Z,27.54
2023-04-08T06:17:38.431Z,28.17
2023-04-08T06:20:42.537Z,28.11
2023-04-08T06:23:46.747Z,27.69
2023-04-08T06:26:51.175Z,27.52
2023-04-08T06:29:56.189Z,26.97
2023-04-08T06:33:00.740Z,27.68
2023-04-08T06:36:06.772Z,27.77
2023-04-08T06:39:11.500Z,27.46
2023-04-08T06:42:15.584Z,27.42
2023-04-08T06:45:38.412Z,27.76
2023-04-08T06:48:42.980Z,27.30
2023-04-08T06:51:47.456Z,28.02
2023-04-08T06:54:51.725Z,28.12
2023-04-08T06:57:55.872Z,27.73
2023-04-08T07:01:02.317Z,28.30
2023-04-08T07:04:06.714Z,28.74
2023-04-08T07:07:10.525Z,29.37
2023-04-08T07:10:15.124Z,29.63
2023-04-08T07:13:19.751Z,29.08
2023-04-08T07:16:24.399Z,29.06
2023-04-08T07:19:29.220Z,27.82
2023-04-08T07:22:33.770Z,28.38
2023-04-08T07:25:37.886Z,28.24
2023-04-08T07:28:42.059Z,28.81
2023-04-08T07:31:46.367Z,30.68
2023-04-08T07:34:51.289Z,31.12
2023-04-08T07:37:55.948Z,31.77
2023-04-08T07:40:59.924Z,31.98
2023-04-08T07:44:04.238Z,32.91
2023-04-08T07:47:08.276Z,32.99
2023-04-08T07:50:12.881Z,31.90
2023-04-08T07:53:17.980Z,33.15
2023-04-08T07:56:23.302Z,33.33
2023-04-08T07:59:27.411Z,34.43
2023-04-08T08:02:32.120Z,34.58
2023-04-08T08:05:40.127Z,35.34
2023-04-08T08:08:45.070Z,35.24
2023-04-08T08:11:49.491Z,36.01
2023-04-08T08:14:55.701Z,36.25
2023-04-08T08:18:00.242Z,37.54
2023-04-08T08:21:05.136Z,37.35
2023-04-08T08:24:09.698Z,37.67
2023-04-08T08:27:13.994Z,37.32
2023-04-08T08:30:18.199Z,37.60
2023-04-08T08:33:22.534Z,38.31
2023-04-08T08:36:30.755Z,38.73
2023-04-08T08:39:36.275Z,39.30
2023-04-08T08:42:41.244Z,39.10
2023-04-08T08:45:45.530Z,39.37
2023-04-08T08:48:50.872Z,39.78
2023-04-08T08:51:56.809Z,40.51
2023-04-08T08:55:03.329Z,40.59
2023-04-08T08:58:14.626Z,41.00
2023-04-08T09:01:35.719Z,42.35
2023-04-08T09:04:40.282Z,42.92
2023-04-08T09:07:45.545Z,43.50
2023-04-08T09:10:49.614Z,43.18
2023-04-08T09:13:54.028Z,42.46
2023-04-08T09:16:58.634Z,43.08
2023-04-08T09:20:16.082Z,43.42
2023-04-08T09:23:20.679Z,43.62
2023-04-08T09:26:26.113Z,43.49
2023-04-08T09:29:33.842Z,44.31
2023-04-08T09:33:02.102Z,45.32
2023-04-08T09:36:11.614Z,44.22
2023-04-08T09:39:17.084Z,45.39
2023-04-08T09:42:23.349Z,45.58
2023-04-08T09:45:28.883Z,44.65
2023-04-08T09:48:41.648Z,45.31
2023-04-08T09:52:14.786Z,46.37
2023-04-08T09:55:23.117Z,46.50
2023-04-08T09:58:32.747Z,46.29
2023-04-08T10:01:46.520Z,47.64
2023-04-08T10:04:54.924Z,48.04
2023-04-08T10:08:01.486Z,47.52
2023-04-08T10:11:05.494Z,47.92
2023-04-08T10:14:12.281Z,47.59
2023-04-08T10:17:29.446Z,48.61
2023-04-08T10:20:38.407Z,48.31
2023-04-08T10:24:00.853Z,48.23
2023-04-08T10:27:07.328Z,47.95
2023-04-08T10:30:40.767Z,48.92
2023-04-08T10:33:45.417Z,48.07
2023-04-08T10:36:50.728Z,48.90
2023-04-08T10:39:56.239Z,48.80
2023-04-08T10:43:01.436Z,48.58
2023-04-08T10:46:06.398Z,48.73
2023-04-08T10:49:11.058Z,49.61
2023-04-08T10:52:16.598Z,52.06
2023-04-08T10:55:28.237Z,50.73
2023-04-08T10:58:32.637Z,50.67
2023-04-08T11:01:41.844Z,50.73
2023-04-08T11:04:48.549Z,50.67
2023-04-08T11:07:53.922Z,51.70
2023-04-08T11:11:02.537Z,51.90
2023-04-08T11:14:08.040Z,52.48
2023-04-08T11:17:13.454Z,52.36
2023-04-08T11:20:18.429Z,54.47
2023-04-08T11:23:31.453Z,53.13
2023-04-08T11:26:38.617Z,53.84
2023-04-08T11:29:42.883Z,55.85
2023-04-08T11:32:47.478Z,54.79
2023-04-08T11:35:52.862Z,54.68
2023-04-08T11:38:57.673Z,53.93
2023-04-08T11:42:02.155Z,54.94
2023-04-08T11:45:17.836Z,55.69
2023-04-08T11:48:22.249Z,55.08
2023-04-08T11:51:27.094Z,55.36
2023-04-08T11:54:33.500Z,55.99
2023-04-08T11:57:38.506Z,55.73
2023-04-08T12:00:43.648Z,55.03
2023-04-08T12:03:59.582Z,55.23
2023-04-08T12:07:03.784Z,55.70
2023-04-08T12:10:08.594Z,56.63
2023-04-08T12:13:12.525Z,57.65
2023-04-08T12:16:17.031Z,56.26
2023-04-08T12:19:22.449Z,56.61
2023-04-08T12:22:26.421Z,57.73
2023-04-08T12:25:42.976Z,58.18
2023-04-08T12:28:48.275Z,57.55
2023-04-08T12:31:52.551Z,57.47
2023-04-08T12:34:57.121Z,57.51
2023-04-08T12:38:01.200Z,57.87
2023-04-08T12:41:05.125Z,58.08
2023-04-08T12:44:09.575Z,58.17
2023-04-08T12:47:13.461Z,58.15
2023-04-08T12:50:18.024Z,58.39
2023-04-08T12:53:22.139Z,58.58
2023-04-08T12:56:26.558Z,58.12
2023-04-08T12:59:30.595Z,58.70
2023-04-08T13:02:35.054Z,59.05
2023-04-08T13:05:43.099Z,60.40
2023-04-08T13:08:48.504Z,60.65
2023-04-08T13:11:52.869Z,59.79
2023-04-08T13:14:57.529Z,58.25
2023-04-08T13:18:02.351Z,57.23
2023-04-08T13:21:06.448Z,55.86
2023-04-08T13:24:11.057Z,57.36
2023-04-08T13:27:15.615Z,58.36
2023-04-08T13:30:20.388Z,57.42
2023-04-08T13:33:24.956Z,59.11
2023-04-08T13:36:29.464Z,60.05
2023-04-08T13:39:33.388Z,58.44
2023-04-08T13:42:38.198Z,57.92
2023-04-08T13:45:42.864Z,57.92
2023-04-08T13:48:47.728Z,59.21
2023-04-08T13:51:52.235Z,58.64
2023-04-08T13:54:56.658Z,58.78
2023-04-08T13:58:01.570Z,60.72
2023-04-08T14:01:07.061Z,64.87
2023-04-08T14:04:11.546Z,62.41
2023-04-08T14:07:16.133Z,61.92
2023-04-08T14:10:20.298Z,61.53
2023-04-08T14:13:24.626Z,60.96
2023-04-08T14:16:30.467Z,60.97
2023-04-08T14:19:34.507Z,63.42
2023-04-08T14:22:38.911Z,61.58
2023-04-08T14:25:43.672Z,60.44
2023-04-08T14:28:48.583Z,61.21
2023-04-08T14:32:18.063Z,63.83
2023-04-08T14:35:22.617Z,64.77
2023-04-08T14:38:27.509Z,64.62
2023-04-08T14:41:31.507Z,63.20
2023-04-08T14:44:36.260Z,62.13
2023-04-08T14:47:40.781Z,62.18
2023-04-08T14:50:45.438Z,61.87
2023-04-08T14:53:49.807Z,61.35
2023-04-08T14:56:54.854Z,60.44
2023-04-08T15:00:00.237Z,60.64
2023-04-08T15:03:04.920Z,62.96
2023-04-08T15:06:09.752Z,63.81
2023-04-08T15:09:14.285Z,62.96
2023-04-08T15:12:18.877Z,65.56
2023-04-08T15:15:23.376Z,65.11
2023-04-08T15:18:27.912Z,65.65
2023-04-08T15:21:32.914Z,64.79
2023-04-08T15:24:37.888Z,65.27
2023-04-08T15:27:44.035Z,64.74
2023-04-08T15:30:48.629Z,64.84
2023-04-08T15:33:53.686Z,64.90
2023-04-08T15:36:58.460Z,64.59
2023-04-08T15:40:02.849Z,65.73
2023-04-08T15:43:10.866Z,65.48
2023-04-08T15:46:22.415Z,65.39
2023-04-08T15:49:27.587Z,65.54
2023-04-08T15:52:33.163Z,66.02
2023-04-08T15:55:42.813Z,68.07
2023-04-08T15:58:47.944Z,64.87
2023-04-08T16:01:52.585Z,63.74
2023-04-08T16:04:59.291Z,63.32
2023-04-08T16:08:05.354Z,63.55
2023-04-08T16:11:10.373Z,62.21
2023-04-08T16:14:15.128Z,64.12
2023-04-08T16:17:19.728Z,64.50
2023-04-08T16:20:24.284Z,64.46
2023-04-08T16:23:28.810Z,65.74
2023-04-08T16:26:33.230Z,65.94
2023-04-08T16:29:37.718Z,66.36
2023-04-08T16:32:42.886Z,66.87
2023-04-08T16:35:48.928Z,66.89
2023-04-08T16:39:01.410Z,67.02
2023-04-08T16:42:06.237Z,67.51
2023-04-08T16:45:11.366Z,67.40
2023-04-08T16:48:15.921Z,66.88
2023-04-08T16:51:23.115Z,65.58
2023-04-08T16:54:27.417Z,66.28
2023-04-08T16:57:31.461Z,66.95
2023-04-08T17:00:37.405Z,67.00
2023-04-08T17:03:42.305Z,67.62
2023-04-08T17:06:46.843Z,67.52
2023-04-08T17:09:52.828Z,67.71
2023-04-08T17:12:58.584Z,68.94
2023-04-08T17:16:02.922Z,68.06
2023-04-08T17:19:07.403Z,68.01
2023-04-08T17:22:12.282Z,67.96
2023-04-08T17:25:17.037Z,68.20
2023-04-08T17:28:22.319Z,68.33
2023-04-08T17:31:26.369Z,67.87
2023-04-08T17:34:32.228Z,67.94
2023-04-08T17:37:37.178Z,68.51
2023-04-08T17:40:41.584Z,68.52
2023-04-08T17:43:46.749Z,69.05
2023-04-08T17:46:51.357Z,68.97
2023-04-08T17:49:57.065Z,68.87
2023-04-08T17:53:01.815Z,69.10
2023-04-08T17:56:07.009Z,69.26
2023-04-08T17:59:12.252Z,70.78
2023-04-08T18:02:16.682Z,72.49
2023-04-08T18:05:21.372Z,73.32
2023-04-08T18:08:25.575Z,72.75
2023-04-08T18:11:29.421Z,73.18
2023-04-08T18:14:33.778Z,74.08
2023-04-08T18:17:38.066Z,72.96
2023-04-08T18:20:42.665Z,73.03
2023-04-08T18:23:50.331Z,73.45
2023-04-08T18:27:03.903Z,74.81
2023-04-08T18:30:09.227Z,75.91
2023-04-08T18:33:13.480Z,76.84
2023-04-08T18:36:18.268Z,77.76
2023-04-08T18:39:22.450Z,77.83
2023-04-08T18:42:26.756Z,76.77
2023-04-08T18:45:31.292Z,74.87
2023-04-08T18:48:35.479Z,73.67
2023-04-08T18:51:42.200Z,73.42
2023-04-08T18:54:50.301Z,73.03
2023-04-08T18:57:55.152Z,72.20
2023-04-08T19:00:59.722Z,71.93
2023-04-08T19:04:04.396Z,71.99
2023-04-08T19:07:08.838Z,70.81
2023-04-08T19:10:13.529Z,69.53
2023-04-08T19:13:17.834Z,68.33
2023-04-08T19:16:22.024Z,69.41
2023-04-08T19:19:26.827Z,70.15
2023-04-08T19:22:31.863Z,69.76
2023-04-08T19:25:37.384Z,69.65
2023-04-08T19:28:41.916Z,69.47
2023-04-08T19:31:46.575Z,69.22
2023-04-08T19:34:51.355Z,68.72
2023-04-08T19:37:55.748Z,68.73
2023-04-08T19:40:59.928Z,68.41
2023-04-08T19:44:04.524Z,70.74
2023-04-08T19:47:09.121Z,70.18
2023-04-08T19:50:17.142Z,69.99
2023-04-08T19:53:21.848Z,69.38
2023-04-08T19:56:26.657Z,70.23
2023-04-08T19:59:31.128Z,69.45
2023-04-08T20:02:35.666Z,70.01
2023-04-08T20:05:39.942Z,69.62
2023-04-08T20:08:44.802Z,69.82
2023-04-08T20:11:49.376Z,69.20
2023-04-08T20:14:54.035Z,72.00
2023-04-08T20:17:58.688Z,70.64
2023-04-08T20:21:02.730Z,71.28
2023-04-08T20:24:08.075Z,70.77
2023-04-08T20:27:12.972Z,71.66
2023-04-08T20:30:17.478Z,72.36
2023-04-08T20:33:21.540Z,70.99
2023-04-08T20:36:26.012Z,70.03
2023-04-08T20:39:31.891Z,70.10
2023-04-08T20:42:36.430Z,69.89
2023-04-08T20:45:40.884Z,69.92
2023-04-08T20:48:45.708Z,70.40
2023-04-08T20:51:50.203Z,70.93
2023-04-08T20:54:54.778Z,69.77
2023-04-08T20:57:58.938Z,71.03
2023-04-08T21:01:03.099Z,71.07
2023-04-08T21:04:10.997Z,71.39
2023-04-08T21:07:15.399Z,70.94
2023-04-08T21:10:19.876Z,69.61
2023-04-08T21:13:24.308Z,69.50
2023-04-08T21:16:29.833Z,70.27
2023-04-08T21:19:34.448Z,68.18
2023-04-08T21:22:39.321Z,66.34
2023-04-08T21:25:43.479Z,66.53
2023-04-08T21:28:47.789Z,65.72
2023-04-08T21:31:52.217Z,64.32
2023-04-08T21:34:56.651Z,63.27
2023-04-08T21:38:01.251Z,61.41
2023-04-08T21:41:05.675Z,61.94
2023-04-08T21:44:10.957Z,59.95
2023-04-08T21:47:15.775Z,58.35
2023-04-08T21:50:19.799Z,57.16
2023-04-08T21:53:24.700Z,56.57
2023-04-08T21:56:29.257Z,54.49
2023-04-08T21:59:33.307Z,55.39
2023-04-08T22:02:41.511Z,54.29
2023-04-08T22:05:45.496Z,54.01
2023-04-08T22:08:51.405Z,52.52
2023-04-08T22:11:55.613Z,51.54
2023-04-08T22:15:00.000Z,51.31
2023-04-08T22:18:05.588Z,50.32
2023-04-08T22:21:10.102Z,50.01
2023-04-08T22:24:14.651Z,50.99
2023-04-08T22:27:19.147Z,50.77
2023-04-08T22:30:23.614Z,52.11
2023-04-08T22:33:28.693Z,52.42
2023-04-08T22:36:32.616Z,54.99
2023-04-08T22:39:36.819Z,55.39
2023-04-08T22:42:41.411Z,59.93
2023-04-08T22:45:45.592Z,60.06
2023-04-08T22:48:50.259Z,58.70
2023-04-08T22:51:54.180Z,60.22
2023-04-08T22:54:58.574Z,60.50
2023-04-08T22:58:03.258Z,62.21
2023-04-08T23:01:18.612Z,62.94
2023-04-08T23:04:22.736Z,63.35
2023-04-08T23:07:27.123Z,63.37
2023-04-08T23:10:31.117Z,64.41
2023-04-08T23:13:36.145Z,66.34
2023-04-08T23:16:40.183Z,66.37
2023-04-08T23:19:44.512Z,67.68
2023-04-08T23:22:48.426Z,67.11
2023-04-08T23:25:55.773Z,67.56
2023-04-08T23:28:59.969Z,66.67
2023-04-08T23:32:03.918Z,65.81
2023-04-08T23:35:09.709Z,66.45
2023-04-08T23:38:13.327Z,66.77
2023-04-08T23:41:17.042Z,66.88
2023-04-08T23:44:21.237Z,66.21
2023-04-08T23:47:25.060Z,68.54
2023-04-08T23:50:28.940Z,67.19
2023-04-08T23:53:32.806Z,68.36
2023-04-08T23:56:37.316Z,68.00
2023-04-08T23:59:52.971Z,67.78
